Time;durP1;ratioP1;P1;durP2;ratioP2;P2;SDS_P1;SDS_P2;PMS_P1;PMS_P2;Temp;Humidity;BMP_temperature;BMP_pressure;BME280_temperature;BME280_humidity;BME280_pressure;Samples;Min_cycle;Max_cycle;Signal;HPM_P1;HPM_P2
2020/12/20 00:02:22;;;;;;;11.67;10.67;;;5.50;99.90;;;6.30;78.63;98247.47;5186262;28;20222;-77
2020/12/20 00:04:54;;;;;;;11.37;10.47;;;5.50;99.90;;;6.25;79.65;98245.31;5186599;28;20595;-77
2020/12/20 00:07:26;;;;;;;10.70;9.80;;;5.50;99.90;;;6.27;79.37;98247.22;5187867;28;20203;-77
2020/12/20 00:09:59;;;;;;;9.90;9.10;;;5.40;99.90;;;6.24;79.65;98249.53;5186786;28;20199;-77
2020/12/20 00:12:31;;;;;;;10.57;9.73;;;5.40;99.90;;;6.24;79.73;98246.97;5187076;28;20195;-78
2020/12/20 00:15:04;;;;;;;9.27;8.50;;;5.40;99.90;;;6.26;80.05;98240.34;5186519;28;20313;-77
2020/12/20 00:17:36;;;;;;;11.20;10.20;;;5.50;99.90;;;6.25;80.78;98246.19;5179931;28;20290;-77
2020/12/20 00:20:09;;;;;;;9.70;8.90;;;5.40;99.90;;;6.24;80.48;98244.44;5184786;28;20206;-77
2020/12/20 00:22:41;;;;;;;9.83;9.03;;;5.40;99.90;;;6.29;81.07;98245.66;5187828;28;20219;-77
2020/12/20 00:25:14;;;;;;;12.73;11.53;;;5.50;99.90;;;6.33;81.40;98249.38;5187332;28;20219;-78
2020/12/20 00:27:46;;;;;;;9.77;8.87;;;5.40;99.90;;;6.28;81.68;98238.84;5186549;28;20212;-77
2020/12/20 00:30:18;;;;;;;9.80;9.00;;;5.50;99.90;;;6.28;81.42;98233.75;5185291;28;20206;-77
2020/12/20 00:32:51;;;;;;;10.83;9.83;;;5.40;99.90;;;6.19;81.38;98242.28;5186653;28;20210;-78
2020/12/20 00:35:23;;;;;;;11.50;10.40;;;5.40;99.90;;;6.19;80.92;98244.84;5186032;28;20759;-77
2020/12/20 00:37:56;;;;;;;12.77;11.50;;;5.40;99.90;;;6.22;81.20;98245.97;5187213;28;20225;-77
2020/12/20 00:40:29;;;;;;;12.13;10.93;;;5.40;99.90;;;6.17;81.18;98242.16;5186697;28;20199;-78
2020/12/20 00:43:00;;;;;;;11.80;10.80;;;5.30;99.90;;;6.18;81.92;98233.81;5187320;28;20214;-76
2020/12/20 00:45:32;;;;;;;12.60;11.43;;;5.30;99.90;;;6.29;81.43;98227.03;5185958;28;20226;-77
2020/12/20 00:48:04;;;;;;;10.27;9.37;;;5.40;99.90;;;6.26;81.62;98224.25;5185100;28;20568;-78
2020/12/20 00:50:36;;;;;;;10.07;9.10;;;5.40;99.90;;;6.23;81.87;98222.34;5185592;28;20209;-77
2020/12/20 00:53:08;;;;;;;10.93;9.87;;;5.40;99.90;;;6.19;82.48;98220.34;5186335;28;20202;-77
2020/12/20 00:55:41;;;;;;;10.60;9.70;;;5.40;99.90;;;6.15;82.46;98222.50;5186978;28;20218;-77
2020/12/20 00:58:13;;;;;;;10.20;9.30;;;5.40;99.90;;;6.22;82.22;98229.84;5186773;28;20294;-77
2020/12/20 01:00:45;;;;;;;10.23;9.07;;;5.40;99.90;;;6.26;81.49;98222.59;5177595;28;20199;-77
2020/12/20 01:03:18;;;;;;;11.77;10.67;;;5.40;99.90;;;6.62;78.50;98226.25;5186678;28;20729;-77
2020/12/20 01:05:50;;;;;;;10.80;9.80;;;5.60;99.90;;;6.51;78.32;98219.44;5182843;28;20233;-77
2020/12/20 01:08:22;;;;;;;11.97;10.77;;;5.70;99.90;;;6.55;78.94;98231.59;5188140;28;20551;-77
2020/12/20 01:10:56;;;;;;;10.60;9.77;;;5.80;99.90;;;6.60;78.56;98220.16;5186923;28;20194;-77
2020/12/20 01:13:28;;;;;;;12.47;11.17;;;5.80;99.90;;;6.57;79.25;98222.47;5187030;28;20222;-77
2020/12/20 01:16:00;;;;;;;12.27;10.87;;;5.70;99.90;;;6.44;79.38;98227.34;5179652;28;20218;-77
2020/12/20 01:18:32;;;;;;;9.97;9.07;;;5.70;99.90;;;6.34;79.28;98215.59;5176645;28;20754;-77
2020/12/20 01:21:04;;;;;;;10.03;9.23;;;5.60;99.90;;;6.35;79.34;98221.53;5186455;28;20249;-77
2020/12/20 01:23:36;;;;;;;8.77;8.07;;;5.60;99.90;;;6.36;79.71;98223.34;5206773;28;20205;-78
2020/12/20 01:26:09;;;;;;;9.93;9.13;;;5.60;99.90;;;6.38;79.43;98226.84;5202656;28;20284;-77
2020/12/20 01:28:42;;;;;;;9.90;9.10;;;5.60;99.90;;;6.39;79.82;98228.66;5181506;28;20201;-77
2020/12/20 01:31:14;;;;;;;9.10;8.40;;;5.60;99.90;;;6.42;79.00;98226.34;5178862;28;20206;-77
2020/12/20 01:33:46;;;;;;;8.97;8.27;;;5.60;99.90;;;6.42;79.78;98228.91;5183973;28;20209;-77
2020/12/20 01:36:18;;;;;;;9.57;8.77;;;5.70;99.90;;;6.54;78.58;98232.38;5185577;28;20202;-77
2020/12/20 01:38:51;;;;;;;9.00;8.30;;;5.70;99.90;;;6.50;78.98;98228.72;5186049;28;20261;-77
2020/12/20 01:41:23;;;;;;;9.70;8.87;;;5.70;99.90;;;6.56;78.43;98223.25;5186092;28;20222;-77
2020/12/20 01:43:55;;;;;;;8.37;7.77;;;5.70;99.90;;;6.52;79.12;98226.28;5184099;28;20218;-77
2020/12/20 01:46:27;;;;;;;8.50;7.80;;;5.70;99.90;;;6.51;78.59;98225.41;5186347;28;20233;-77
2020/12/20 01:49:01;;;;;;;8.80;8.10;;;5.70;99.90;;;6.50;79.66;98222.78;5171974;28;20203;-78
2020/12/20 01:51:34;;;;;;;13.37;11.43;;;5.70;99.90;;;6.56;79.85;98215.63;5181415;28;20210;-77
2020/12/20 01:54:06;;;;;;;16.50;13.87;;;5.70;99.90;;;6.49;80.67;98221.84;5186285;28;20714;-77
2020/12/20 01:56:39;;;;;;;23.33;17.30;;;5.70;99.90;;;6.46;80.22;98220.75;5185865;28;20195;-77
2020/12/20 01:59:11;;;;;;;17.77;13.83;;;5.60;99.90;;;6.45;80.07;98219.84;5186230;28;20198;-77
2020/12/20 02:01:43;;;;;;;9.60;8.80;;;5.60;99.90;;;6.45;79.96;98218.97;5184306;28;20597;-77
2020/12/20 02:04:15;;;;;;;10.07;9.27;;;5.50;99.90;;;6.43;79.55;98216.31;5185590;28;20234;-77
2020/12/20 02:06:47;;;;;;;10.97;9.97;;;5.50;99.90;;;6.36;79.73;98218.25;5184576;28;20207;-77
2020/12/20 02:09:19;;;;;;;9.57;8.70;;;5.50;99.90;;;6.38;79.59;98226.84;5185729;28;20197;-77
2020/12/20 02:11:53;;;;;;;12.63;11.53;;;5.50;99.90;;;6.36;80.42;98213.19;5185484;28;20663;-78
2020/12/20 02:14:25;;;;;;;14.63;13.23;;;5.50;99.90;;;6.34;80.84;98219.78;5184096;28;20214;-77
2020/12/20 02:16:57;;;;;;;17.53;15.67;;;5.50;99.90;;;6.31;80.63;98216.22;5184634;28;20412;-77
2020/12/20 02:19:29;;;;;;;16.27;14.57;;;5.40;99.90;;;6.32;80.30;98218.03;5172399;28;20211;-77
2020/12/20 02:22:02;;;;;;;13.63;12.27;;;5.40;99.90;;;6.31;80.25;98215.34;5185689;28;20206;-77
2020/12/20 02:24:34;;;;;;;11.37;10.27;;;5.40;99.90;;;6.31;80.74;98220.41;5185313;28;20225;-77
2020/12/20 02:27:06;;;;;;;10.17;9.20;;;5.50;99.90;;;6.27;81.04;98214.22;5185175;28;20217;-77
2020/12/20 02:29:40;;;;;;;9.27;8.37;;;5.40;99.90;;;6.25;80.31;98214.88;5184248;28;20275;-78
2020/12/20 02:32:12;;;;;;;8.57;7.97;;;5.40;99.90;;;6.25;80.75;98220.81;5184092;28;20201;-77
2020/12/20 02:34:44;;;;;;;9.27;8.47;;;5.40;99.90;;;6.25;80.40;98210.66;5184034;28;20229;-77
2020/12/20 02:37:19;;;;;;;8.47;7.77;;;5.40;99.90;;;6.27;80.47;98219.31;5184697;28;20202;-77
2020/12/20 02:39:51;;;;;;;8.60;7.90;;;5.40;99.90;;;6.29;80.84;98212.66;5185138;28;20236;-78
2020/12/20 02:42:23;;;;;;;9.07;8.37;;;5.50;99.90;;;6.28;80.70;98220.19;5185257;28;20228;-78
2020/12/20 02:44:56;;;;;;;8.80;8.10;;;5.50;99.90;;;6.32;80.68;98215.47;5184076;28;20597;-77
2020/12/20 02:47:28;;;;;;;9.27;8.57;;;5.50;99.90;;;6.32;80.55;98217.09;5183206;28;20198;-77
2020/12/20 02:50:00;;;;;;;9.17;8.37;;;5.50;99.90;;;6.32;80.46;98224.72;5182338;28;20211;-76
2020/12/20 02:52:33;;;;;;;9.43;8.73;;;5.40;99.90;;;6.32;80.62;98228.19;5185341;28;20194;-77
2020/12/20 02:55:05;;;;;;;9.63;8.83;;;5.40;99.90;;;6.31;80.14;98225.50;5184894;28;20229;-77
2020/12/20 02:57:37;;;;;;;9.87;9.07;;;5.40;99.90;;;6.35;79.81;98219.00;5184698;28;20206;-77
2020/12/20 03:00:09;;;;;;;8.87;8.17;;;5.40;99.90;;;6.24;80.04;98219.06;5181655;28;20205;-77
2020/12/20 03:02:41;;;;;;;8.87;8.07;;;5.40;99.90;;;6.25;80.10;98214.88;5183979;28;20223;-77
2020/12/20 03:05:13;;;;;;;9.00;8.30;;;5.30;99.90;;;6.23;80.92;98219.81;5183680;28;20214;-78
2020/12/20 03:07:46;;;;;;;8.90;8.30;;;5.40;99.90;;;6.21;81.25;98217.91;5185458;28;20199;-77
2020/12/20 03:10:18;;;;;;;10.07;9.17;;;5.40;99.90;;;6.33;80.40;98221.44;5184748;28;20202;-78
2020/12/20 03:12:51;;;;;;;9.43;8.53;;;5.40;99.90;;;6.30;80.18;98218.66;5184614;28;20207;-77
2020/12/20 03:15:23;;;;;;;9.17;8.47;;;5.40;99.90;;;6.27;79.58;98215.88;5183888;28;20606;-77
2020/12/20 03:17:55;;;;;;;8.10;7.40;;;5.40;99.90;;;6.19;79.64;98222.00;5182681;28;20209;-76
2020/12/20 03:20:27;;;;;;;9.27;8.57;;;5.40;99.90;;;6.20;79.37;98217.03;5184087;28;20217;-77
2020/12/20 03:23:00;;;;;;;8.53;7.83;;;5.40;99.90;;;6.27;79.81;98216.75;5184310;28;20219;-76
2020/12/20 03:25:32;;;;;;;9.67;8.87;;;5.40;99.90;;;6.20;78.36;98211.06;5184559;28;20222;-77
2020/12/20 03:28:04;;;;;;;9.30;8.50;;;5.40;99.90;;;6.19;79.09;98212.72;5183882;28;20202;-77
2020/12/20 03:30:36;;;;;;;9.80;9.10;;;5.30;99.90;;;6.14;78.95;98211.47;5184105;28;20199;-77
2020/12/20 03:33:08;;;;;;;9.53;8.73;;;5.40;99.90;;;6.16;79.42;98204.88;5184328;28;20579;-77
2020/12/20 03:35:40;;;;;;;9.50;8.80;;;5.40;99.90;;;6.17;79.20;98201.56;5183062;28;20230;-77
2020/12/20 03:38:13;;;;;;;9.03;8.33;;;5.40;99.90;;;6.18;79.30;98208.44;5184573;28;20210;-78
2020/12/20 03:40:45;;;;;;;9.37;8.57;;;5.40;99.90;;;6.22;79.37;98202.81;5184632;28;20211;-77
2020/12/20 03:43:17;;;;;;;9.00;8.30;;;5.40;99.90;;;6.31;78.19;98201.00;5184149;28;20234;-76
2020/12/20 03:45:49;;;;;;;9.17;8.47;;;5.50;99.90;;;6.30;78.26;98198.34;5184187;28;20227;-77
2020/12/20 03:48:21;;;;;;;9.33;8.43;;;5.40;99.90;;;6.09;78.32;98200.06;5183124;28;20581;-77
2020/12/20 03:50:53;;;;;;;9.10;8.40;;;5.40;99.90;;;6.04;78.43;98198.81;5186489;28;20202;-77
2020/12/20 03:53:26;;;;;;;9.83;9.03;;;5.30;99.90;;;6.01;78.92;98199.47;5188526;28;20191;-77
2020/12/20 03:55:58;;;;;;;9.73;8.90;;;5.30;99.90;;;5.98;78.97;98203.38;5187791;28;20709;-77
2020/12/20 03:58:30;;;;;;;8.87;8.17;;;5.30;99.90;;;6.06;79.06;98197.28;5187755;28;20194;-77
2020/12/20 04:01:04;;;;;;;8.33;7.63;;;5.30;99.90;;;6.10;78.87;98199.31;5186864;28;20578;-77
2020/12/20 04:03:36;;;;;;;9.37;8.67;;;5.30;99.90;;;6.14;78.95;98206.38;5187186;28;20277;-77
2020/12/20 04:06:08;;;;;;;9.33;8.47;;;5.30;99.90;;;6.12;78.97;98194.34;5183292;28;20216;-77
2020/12/20 04:08:41;;;;;;;10.00;9.20;;;5.30;99.90;;;6.24;78.23;98187.72;5188543;28;20572;-77
2020/12/20 04:11:13;;;;;;;9.30;8.50;;;5.30;99.90;;;6.07;79.47;98199.94;5197577;28;20581;-78
2020/12/20 04:13:45;;;;;;;10.63;9.67;;;5.30;99.90;;;5.95;79.53;98196.44;5201942;28;20213;-77
2020/12/20 04:16:17;;;;;;;9.93;9.13;;;5.30;99.90;;;6.00;78.89;98199.31;5186467;28;20210;-77
2020/12/20 04:18:50;;;;;;;9.17;8.43;;;5.20;99.90;;;6.12;77.80;98184.19;5185777;28;20210;-77
2020/12/20 04:21:35;;;;;;;9.00;8.17;;;5.30;99.90;;;6.01;78.73;98190.94;5181987;28;20687;-77
2020/12/20 04:24:08;;;;;;;9.57;8.77;;;5.20;99.90;;;6.00;78.80;98191.72;5187364;28;20237;-77
2020/12/20 04:26:40;;;;;;;9.20;8.40;;;5.20;99.90;;;5.92;78.78;98195.25;5187329;28;20698;-77
2020/12/20 04:29:12;;;;;;;10.27;9.43;;;5.30;99.90;;;5.79;78.89;98196.81;5187131;28;20213;-76
2020/12/20 04:31:44;;;;;;;10.30;9.40;;;5.20;99.90;;;5.93;77.88;98199.59;5186311;28;20198;-77
2020/12/20 04:34:16;;;;;;;10.50;9.70;;;5.20;99.90;;;5.84;78.70;98200.63;5187129;28;20226;-78
2020/12/20 04:36:48;;;;;;;9.17;8.47;;;5.20;99.90;;;5.91;78.71;98201.97;5186535;28;20302;-77
2020/12/20 04:39:21;;;;;;;9.80;8.50;;;5.20;99.90;;;5.92;77.83;98203.75;5187789;28;20576;-77
2020/12/20 04:41:53;;;;;;;8.90;8.20;;;5.20;99.90;;;5.92;77.80;98202.88;5184002;28;20321;-77
2020/12/20 04:44:25;;;;;;;8.93;8.20;;;5.20;99.90;;;6.03;77.10;98209.72;5176185;28;20225;-77
2020/12/20 04:46:57;;;;;;;9.60;8.80;;;5.30;99.90;;;6.07;77.01;98201.59;5172181;28;20209;-78
2020/12/20 04:49:30;;;;;;;9.37;8.47;;;5.30;99.90;;;5.97;77.23;98197.44;5187302;28;20213;-77
2020/12/20 04:52:02;;;;;;;9.40;8.63;;;5.30;99.90;;;5.96;77.73;98194.78;5187568;28;20199;-77
2020/12/20 04:54:36;;;;;;;9.17;8.37;;;5.30;99.90;;;5.96;77.97;98210.88;5186857;28;20234;-78
2020/12/20 04:57:08;;;;;;;9.07;8.37;;;5.30;99.90;;;5.99;77.69;98205.19;5187265;28;20199;-78
2020/12/20 04:59:41;;;;;;;9.53;8.73;;;5.30;99.90;;;6.02;77.23;98207.97;5185343;28;20210;-77
2020/12/20 05:02:13;;;;;;;9.17;8.27;;;5.30;99.90;;;6.11;77.73;98202.72;5185725;28;20229;-78
2020/12/20 05:04:45;;;;;;;9.53;8.73;;;5.30;99.90;;;6.07;77.12;98202.50;5185452;28;20218;-77
2020/12/20 05:07:18;;;;;;;10.03;9.23;;;5.30;99.90;;;6.05;77.56;98190.44;5187202;28;20210;-78
2020/12/20 05:09:51;;;;;;;9.50;8.50;;;5.30;99.90;;;6.00;76.91;98197.66;5186983;28;20770;-78
2020/12/20 05:12:27;;;;;;;9.97;8.97;;;5.30;99.90;;;5.99;76.76;98202.66;5186827;28;20584;-78
2020/12/20 05:15:17;;;;;;;10.00;9.10;;;5.20;99.90;;;5.99;76.21;98205.19;5178124;28;20659;-78
2020/12/20 05:17:49;;;;;;;9.23;8.43;;;5.20;99.90;;;5.93;76.93;98210.66;5171422;28;20203;-78
2020/12/20 05:20:37;;;;;;;8.83;8.13;;;5.20;99.90;;;6.03;76.40;98208.06;5185093;28;20195;-78
2020/12/20 05:23:11;;;;;;;8.93;8.07;;;5.20;99.90;;;6.09;76.40;98212.75;5185904;28;20217;-78
2020/12/20 05:25:44;;;;;;;9.70;8.83;;;5.30;99.90;;;6.07;76.36;98214.28;5187070;28;20214;-78
2020/12/20 05:28:18;;;;;;;9.80;9.00;;;5.30;99.90;;;5.96;75.85;98218.50;5185759;28;20210;-78
2020/12/20 05:30:51;;;;;;;9.80;8.90;;;5.20;99.90;;;5.94;76.80;98220.03;5185698;28;20198;-78
2020/12/20 05:33:28;;;;;;;9.17;8.37;;;5.20;99.90;;;5.95;76.30;98214.19;5184597;28;20209;-78
2020/12/20 05:36:01;;;;;;;9.57;8.67;;;5.20;99.90;;;6.00;76.02;98209.47;5176742;28;20222;-77
2020/12/20 05:38:35;;;;;;;9.87;9.07;;;5.20;99.90;;;5.90;76.69;98201.88;5186308;28;20209;-78
2020/12/20 05:41:08;;;;;;;9.20;8.43;;;5.20;99.90;;;5.84;76.72;98200.63;5186543;28;20205;-78
2020/12/20 05:43:40;;;;;;;9.50;8.70;;;5.20;99.90;;;5.90;76.05;98195.16;5185746;28;20222;-78
2020/12/20 05:46:26;;;;;;;8.80;8.00;;;5.20;99.90;;;6.07;74.98;98194.00;5176789;28;20199;-78
2020/12/20 05:49:16;;;;;;;9.67;8.87;;;5.20;99.90;;;6.11;75.79;98202.72;5176905;28;20207;-78
2020/12/20 05:52:11;;;;;;;10.00;9.10;;;5.30;99.90;;;6.04;75.44;98202.25;5184361;28;20675;-77
2020/12/20 05:54:44;;;;;;;8.63;7.93;;;5.30;99.90;;;5.96;76.27;98210.00;5182963;28;20305;-78
2020/12/20 05:57:18;;;;;;;9.50;8.70;;;5.20;99.90;;;5.96;76.49;98204.94;5185953;28;20210;-78
2020/12/20 05:59:52;;;;;;;10.07;9.17;;;5.20;99.90;;;5.95;76.36;98200.59;5178923;28;20214;-78
2020/12/20 06:02:24;;;;;;;10.07;9.20;;;5.20;99.90;;;5.91;76.60;98208.72;5176716;28;20214;-76
2020/12/20 06:04:56;;;;;;;9.10;8.40;;;5.20;99.90;;;5.92;76.42;98210.47;5172213;28;20214;-77
2020/12/20 06:07:29;;;;;;;8.87;8.17;;;5.10;99.90;;;5.93;76.78;98209.72;5186343;28;20596;-78
2020/12/20 06:10:02;;;;;;;10.20;9.33;;;5.20;99.90;;;5.91;76.19;98214.66;5178693;28;20223;-78
2020/12/20 06:12:39;;;;;;;9.50;8.70;;;5.10;99.90;;;5.92;76.93;98218.09;5177775;28;20199;-78
2020/12/20 06:15:18;;;;;;;10.27;9.27;;;5.10;99.90;;;5.90;77.14;98214.56;5185293;28;20683;-78
2020/12/20 06:17:55;;;;;;;9.33;8.53;;;5.20;99.90;;;5.94;76.96;98214.94;5183615;28;20205;-78
2020/12/20 06:20:32;;;;;;;9.27;8.40;;;5.20;99.90;;;5.95;76.86;98203.16;5165950;28;20195;-78
2020/12/20 06:23:04;;;;;;;9.50;8.60;;;5.20;99.90;;;5.95;76.52;98209.13;5182695;28;20247;-79
2020/12/20 06:25:44;;;;;;;9.63;8.83;;;5.20;99.90;;;5.91;75.83;98203.63;5185385;28;20222;-78
2020/12/20 06:28:22;;;;;;;9.17;8.37;;;5.20;99.90;;;5.83;76.35;98203.91;5185077;28;20293;-78
2020/12/20 06:30:57;;;;;;;9.87;9.07;;;5.10;99.90;;;5.88;76.93;98210.22;5184089;28;20190;-78
2020/12/20 06:33:39;;;;;;;9.07;8.37;;;5.10;99.90;;;5.93;76.00;98219.88;5183667;28;20229;-78
2020/12/20 06:36:13;;;;;;;9.37;8.57;;;5.10;99.90;;;5.89;76.67;98221.25;5184399;28;20600;-78
2020/12/20 06:38:52;;;;;;;9.73;8.83;;;5.10;99.90;;;5.92;76.17;98228.22;5193780;28;20198;-78
2020/12/20 06:41:34;;;;;;;9.47;8.67;;;5.10;99.90;;;5.83;76.49;98224.19;5197355;28;20182;-79
2020/12/20 06:44:13;;;;;;;10.10;9.10;;;5.00;99.90;;;5.85;76.47;98226.88;5183783;28;20234;-78
2020/12/20 06:46:45;;;;;;;10.50;9.53;;;5.00;99.90;;;5.86;76.21;98228.63;5184453;28;20702;-78
2020/12/20 06:49:32;;;;;;;9.33;8.57;;;5.00;99.90;;;5.80;76.25;98223.94;5182854;28;20199;-78
2020/12/20 06:52:24;;;;;;;9.73;8.83;;;5.00;99.90;;;5.74;76.74;98225.97;5184484;28;20195;-78
2020/12/20 06:55:08;;;;;;;9.60;8.70;;;5.00;99.90;;;5.77;77.29;98223.69;5183890;28;20222;-78
2020/12/20 06:58:13;;;;;;;9.40;8.60;;;5.00;99.90;;;5.96;76.22;98220.16;5179745;28;20198;-78
2020/12/20 07:00:52;;;;;;;9.97;9.17;;;5.10;99.90;;;5.85;76.61;98230.28;5184187;28;20671;-78
2020/12/20 07:03:48;;;;;;;10.00;9.10;;;5.00;99.90;;;5.78;76.57;98235.63;5182445;28;20245;-78
2020/12/20 07:06:20;;;;;;;9.37;8.57;;;5.00;99.90;;;5.78;77.21;98243.25;5172582;28;20203;-78
2020/12/20 07:08:58;;;;;;;9.27;8.47;;;5.00;99.90;;;5.77;77.12;98243.09;5174164;28;20302;-78
2020/12/20 07:11:30;;;;;;;10.00;9.17;;;5.00;99.90;;;5.75;76.78;98245.53;5182244;28;20209;-79
2020/12/20 07:14:17;;;;;;;9.90;9.10;;;5.00;99.90;;;5.73;76.86;98241.97;5183819;28;20658;-78
2020/12/20 07:16:51;;;;;;;10.10;9.20;;;5.00;99.90;;;5.69;77.32;98245.00;5183716;28;20635;-78
2020/12/20 07:19:25;;;;;;;9.93;9.03;;;5.00;99.90;;;5.69;77.16;98255.16;5183864;28;20195;-78
2020/12/20 07:22:00;;;;;;;9.23;8.43;;;5.00;99.90;;;5.69;77.34;98255.16;5184285;28;20268;-79
2020/12/20 07:24:33;;;;;;;9.50;8.70;;;5.00;99.90;;;5.73;77.21;98259.72;5188101;28;20296;-78
2020/12/20 07:27:07;;;;;;;9.87;8.97;;;5.00;99.90;;;5.76;77.28;98257.44;5171157;28;20210;-78
2020/12/20 07:29:39;;;;;;;10.07;9.10;;;5.00;99.90;;;5.81;77.59;98265.44;5182360;28;20324;-78
2020/12/20 07:32:11;;;;;;;10.37;9.50;;;5.00;99.90;;;5.77;77.52;98264.28;5188032;28;20194;-79
2020/12/20 07:34:47;;;;;;;9.93;9.10;;;5.00;99.90;;;5.75;77.79;98270.88;5185351;28;20226;-78
2020/12/20 07:37:19;;;;;;;9.63;8.83;;;5.00;99.90;;;5.75;77.35;98260.75;5174769;28;20203;-79
2020/12/20 07:40:03;;;;;;;10.27;9.47;;;5.00;99.90;;;5.81;76.72;98258.72;5186690;28;20217;-78
2020/12/20 07:42:35;;;;;;;9.63;8.83;;;5.00;99.90;;;5.77;77.01;98263.38;5183720;28;20222;-79
2020/12/20 07:45:07;;;;;;;10.37;9.37;;;5.00;99.90;;;5.77;77.51;98268.47;5187644;28;20252;-78
2020/12/20 07:47:39;;;;;;;10.00;9.10;;;5.00;99.90;;;5.80;77.60;98268.72;5186401;28;20202;-79
2020/12/20 07:50:11;;;;;;;9.03;8.23;;;5.00;99.90;;;5.83;77.14;98269.84;5179592;28;20195;-79
2020/12/20 07:52:48;;;;;;;8.87;8.10;;;5.00;99.90;;;5.79;77.47;98272.91;5188144;28;20216;-79
2020/12/20 07:55:21;;;;;;;9.10;8.30;;;5.00;99.90;;;5.83;77.34;98274.91;5188082;28;20218;-78
2020/12/20 07:57:54;;;;;;;9.47;8.67;;;5.10;99.90;;;5.83;77.80;98279.97;5187520;28;20209;-79
2020/12/20 08:00:26;;;;;;;9.43;8.63;;;5.10;99.90;;;5.86;77.36;98280.22;5186380;28;20210;-79
2020/12/20 08:03:06;;;;;;;9.80;9.10;;;5.10;99.90;;;5.93;77.07;98281.69;5188622;28;20228;-76
2020/12/20 08:05:39;;;;;;;9.90;9.10;;;5.10;99.90;;;6.00;77.41;98288.13;5188136;28;20237;-79
2020/12/20 08:08:10;;;;;;;10.37;9.47;;;5.20;99.90;;;6.05;77.78;98282.66;5190779;28;20209;-78
2020/12/20 08:10:43;;;;;;;9.40;8.60;;;5.30;99.90;;;6.08;77.82;98287.97;5188043;28;20225;-78
2020/12/20 08:13:17;;;;;;;9.50;8.70;;;5.30;99.90;;;6.15;77.03;98275.78;5186313;28;20278;-78
2020/12/20 08:15:51;;;;;;;9.53;8.77;;;5.30;99.90;;;6.16;76.51;98283.53;5188750;28;20294;-79
2020/12/20 08:18:24;;;;;;;10.73;9.83;;;5.30;99.90;;;6.22;75.46;98281.50;5183876;28;20560;-79
2020/12/20 08:21:00;;;;;;;10.80;9.90;;;5.30;99.90;;;6.08;75.89;98287.09;5188258;28;20195;-79
2020/12/20 08:23:32;;;;;;;10.73;9.83;;;5.30;99.90;;;6.20;76.15;98283.00;5188313;28;20231;-79
2020/12/20 08:26:05;;;;;;;10.33;9.50;;;5.40;99.90;;;6.26;74.97;98293.66;5188281;28;20195;-79
2020/12/20 08:28:37;;;;;;;9.50;8.73;;;5.40;99.90;;;6.38;73.70;98291.25;5189091;28;20213;-78
2020/12/20 08:31:14;;;;;;;9.57;8.77;;;5.50;99.90;;;6.16;74.75;98291.16;5188246;28;20203;-79
2020/12/20 08:33:47;;;;;;;11.30;10.30;;;5.40;99.90;;;6.27;74.61;98292.91;5187060;28;20209;-79
2020/12/20 08:36:21;;;;;;;10.90;9.90;;;5.40;99.90;;;6.18;74.92;98291.25;5188934;28;20199;-79
2020/12/20 08:38:54;;;;;;;10.10;9.10;;;5.40;99.90;;;6.28;74.99;98294.66;5188887;28;20206;-79
2020/12/20 08:41:28;;;;;;;11.60;10.50;;;5.50;99.90;;;6.26;73.92;98287.69;5181555;28;20201;-79
2020/12/20 08:44:08;;;;;;;11.20;10.20;;;5.50;99.90;;;6.30;74.90;98295.69;5187139;28;20233;-79
2020/12/20 08:46:43;;;;;;;11.63;10.63;;;5.60;99.90;;;6.38;74.21;98292.88;5188081;28;20202;-79
2020/12/20 08:49:19;;;;;;;11.17;10.23;;;5.60;99.90;;;6.62;73.81;98299.03;5179499;28;20194;-79
2020/12/20 08:51:51;;;;;;;10.50;9.60;;;5.70;99.90;;;6.67;73.07;98297.75;5185901;28;20210;-78
2020/12/20 08:54:27;;;;;;;11.13;10.13;;;5.90;99.90;;;6.74;73.85;98297.44;5186853;28;20257;-78
2020/12/20 08:57:03;;;;;;;11.83;10.83;;;6.00;99.90;;;6.77;73.65;98301.09;5187995;28;20265;-78
2020/12/20 08:59:41;;;;;;;10.63;9.80;;;6.10;99.90;;;6.99;73.72;98298.59;5186926;28;20206;-79
2020/12/20 09:02:20;;;;;;;11.13;10.23;;;6.30;99.90;;;7.10;73.41;98307.06;5186317;28;20206;-79
2020/12/20 09:04:58;;;;;;;10.47;9.37;;;6.50;99.90;;;7.22;72.83;98294.41;5183344;28;20224;-78
2020/12/20 09:07:37;;;;;;;11.50;10.50;;;6.60;99.90;;;7.25;71.46;98294.66;5186893;28;20290;-79
2020/12/20 09:10:12;;;;;;;11.03;10.00;;;6.60;99.90;;;7.38;70.59;98293.91;5182710;28;20199;-78
2020/12/20 09:12:49;;;;;;;10.53;9.60;;;6.70;99.90;;;7.50;70.45;98299.94;5177786;28;20570;-78
2020/12/20 09:15:23;;;;;;;10.47;9.67;;;6.80;99.90;;;7.38;70.58;98288.81;5176056;28;20214;-77
2020/12/20 09:17:58;;;;;;;10.37;9.50;;;6.70;99.90;;;7.49;70.49;98288.00;5186854;28;20205;-80
2020/12/20 09:20:31;;;;;;;11.10;10.10;;;6.80;99.90;;;7.51;70.52;98296.63;5187502;28;20210;-79
2020/12/20 09:23:03;;;;;;;10.97;10.07;;;6.80;99.90;;;7.65;70.15;98287.50;5186867;28;20249;-81
2020/12/20 09:25:37;;;;;;;12.20;11.07;;;7.00;99.90;;;7.81;70.08;98292.97;5185722;28;20228;-82
2020/12/20 09:28:12;;;;;;;12.70;11.60;;;7.20;99.90;;;8.06;69.14;98290.56;5166694;28;20215;-82
2020/12/20 09:30:46;;;;;;;11.27;10.27;;;7.40;99.90;;;8.18;68.13;98289.69;5177528;28;20743;-82
2020/12/20 09:33:30;;;;;;;11.37;10.43;;;7.40;99.90;;;8.09;67.88;98289.91;5178253;28;20198;-82
2020/12/20 09:36:06;;;;;;;11.17;10.27;;;7.40;99.90;;;8.09;68.12;98289.91;5184094;28;20281;-82
2020/12/20 09:38:40;;;;;;;11.33;10.33;;;7.30;99.90;;;8.03;68.63;98290.34;5185009;28;20570;-81
2020/12/20 09:41:15;;;;;;;10.60;9.70;;;7.30;99.90;;;8.09;68.74;98290.78;5181852;28;20205;-79
2020/12/20 09:43:49;;;;;;;10.83;9.93;;;7.40;99.90;;;8.25;68.99;98286.84;5179167;28;20222;-79
2020/12/20 09:46:23;;;;;;;10.67;9.77;;;7.50;99.90;;;8.40;67.44;98285.41;5173962;28;20281;-79
2020/12/20 09:48:57;;;;;;;10.53;9.63;;;7.60;99.90;;;8.45;66.81;98283.22;5194226;28;20194;-79
2020/12/20 09:51:32;;;;;;;10.80;9.80;;;7.60;99.90;;;8.53;66.27;98285.53;5193928;28;20213;-79
2020/12/20 09:54:04;;;;;;;10.30;9.30;;;7.70;99.90;;;8.59;66.55;98279.13;5177679;28;20508;-79
2020/12/20 09:56:40;;;;;;;10.93;10.07;;;7.70;99.90;;;8.26;67.00;98279.28;5186236;28;20202;-79
2020/12/20 09:59:12;;;;;;;10.90;9.90;;;7.60;99.90;;;8.32;66.29;98268.66;5184696;28;20667;-79
2020/12/20 10:01:44;;;;;;;11.63;10.63;;;7.70;99.90;;;8.30;66.60;98271.13;5185120;28;20202;-78
2020/12/20 10:04:16;;;;;;;11.67;10.77;;;7.60;99.90;;;8.47;66.11;98271.44;5180213;28;20694;-78
2020/12/20 10:06:51;;;;;;;11.60;10.50;;;7.80;99.90;;;8.44;66.99;98264.50;5186146;28;20663;-79
2020/12/20 10:09:23;;;;;;;11.03;10.07;;;7.80;99.90;;;8.48;67.02;98269.03;5186509;28;20204;-79
2020/12/20 10:11:55;;;;;;;11.03;10.03;;;7.80;99.90;;;8.55;67.09;98273.78;5185123;28;20209;-78
2020/12/20 10:14:27;;;;;;;11.57;10.57;;;7.90;99.90;;;8.75;66.67;98262.44;5183312;28;20220;-78
2020/12/20 10:16:59;;;;;;;10.50;9.40;;;8.10;99.90;;;8.86;66.71;98268.31;5185927;28;20213;-79
2020/12/20 10:19:32;;;;;;;10.90;10.00;;;8.20;99.90;;;9.18;65.17;98269.66;5186269;28;20199;-79
2020/12/20 10:22:04;;;;;;;10.13;9.33;;;8.40;99.90;;;9.05;64.80;98261.97;5185437;28;20437;-78
2020/12/20 10:24:36;;;;;;;10.57;9.67;;;8.30;99.90;;;9.16;64.20;98264.47;5179718;28;20597;-79
2020/12/20 10:27:08;;;;;;;11.13;10.13;;;8.40;99.90;;;9.26;63.68;98258.31;5174555;28;20693;-79
2020/12/20 10:29:40;;;;;;;10.90;10.00;;;8.50;99.90;;;9.14;64.29;98258.38;5185221;28;20590;-79
2020/12/20 10:32:13;;;;;;;10.50;9.60;;;8.40;99.90;;;9.24;63.32;98259.88;5178866;28;20198;-79
2020/12/20 10:34:45;;;;;;;11.10;10.10;;;8.40;99.90;;;9.17;64.04;98265.34;5177126;28;20428;-79
2020/12/20 10:37:18;;;;;;;10.57;9.67;;;8.40;99.90;;;9.27;64.30;98265.22;5185614;28;20205;-79
2020/12/20 10:39:50;;;;;;;11.20;10.17;;;8.50;99.90;;;9.47;62.39;98253.78;5183884;28;20303;-79
2020/12/20 10:42:22;;;;;;;10.40;9.60;;;8.70;99.90;;;9.33;64.16;98250.31;5185060;28;20217;-79
2020/12/20 10:44:54;;;;;;;10.63;9.73;;;8.60;99.90;;;9.38;64.95;98251.50;5183731;28;20218;-79
2020/12/20 10:47:26;;;;;;;10.60;9.70;;;8.70;99.90;;;9.49;63.95;98254.78;5183771;28;20194;-79
2020/12/20 10:49:58;;;;;;;10.80;9.80;;;8.80;99.90;;;9.59;64.60;98246.97;5183979;28;20210;-79
2020/12/20 10:52:32;;;;;;;10.40;9.50;;;8.80;99.90;;;9.66;62.98;98245.69;5184133;28;20202;-79
2020/12/20 10:55:05;;;;;;;10.37;9.50;;;8.90;99.90;;;9.73;62.78;98244.44;5183793;28;20225;-79
2020/12/20 10:57:37;;;;;;;10.45;9.65;;;8.90;99.90;;;9.71;62.81;98249.44;5183971;28;20202;-79